Time;durP1;ratioP1;P1;durP2;ratioP2;P2;SDS_P1;SDS_P2;PMS_P1;PMS_P2;Temp;Humidity;BMP_temperature;BMP_pressure;BME280_temperature;BME280_humidity;BME280_pressure;Samples;Min_cycle;Max_cycle;Signal;HPM_P1;HPM_P2
2021/12/30 00:02:06;;;;;;;153.25;112.05;;;11.00;99.90;;;;;;5031148;28;20049;-69
2021/12/30 00:05:13;;;;;;;167.95;118.43;;;10.90;99.90;;;;;;5030996;28;20029;-69
2021/12/30 00:08:17;;;;;;;165.13;119.35;;;10.80;99.90;;;;;;5030703;28;20041;-68
2021/12/30 00:11:22;;;;;;;158.38;113.15;;;10.90;99.90;;;;;;5030633;28;20049;-69
2021/12/30 00:14:29;;;;;;;157.25;117.15;;;10.90;99.90;;;;;;5030765;28;20037;-69
2021/12/30 00:17:34;;;;;;;162.00;120.97;;;10.80;99.90;;;;;;5030558;28;20403;-69
2021/12/30 00:20:39;;;;;;;171.63;124.50;;;10.90;99.90;;;;;;5030750;28;20042;-69
2021/12/30 00:23:43;;;;;;;169.18;123.15;;;10.90;99.90;;;;;;5030561;28;20054;-69
2021/12/30 00:26:47;;;;;;;163.38;114.68;;;10.90;99.90;;;;;;5030799;28;20037;-69
2021/12/30 00:29:51;;;;;;;172.65;123.95;;;10.90;99.90;;;;;;5018158;28;20053;-69
2021/12/30 00:32:55;;;;;;;152.95;114.78;;;11.00;99.90;;;;;;5030632;28;20041;-69
2021/12/30 00:35:59;;;;;;;149.32;110.22;;;11.00;99.90;;;;;;5030508;28;20041;-69
2021/12/30 00:39:04;;;;;;;160.90;116.78;;;10.90;99.90;;;;;;5030156;28;20033;-69
2021/12/30 00:42:08;;;;;;;162.85;116.28;;;10.90;99.90;;;;;;5032205;28;20481;-69
2021/12/30 00:45:12;;;;;;;157.70;120.70;;;10.90;99.90;;;;;;5034490;28;20041;-69
2021/12/30 00:48:16;;;;;;;166.82;118.13;;;10.90;99.90;;;;;;5034319;28;20038;-68
2021/12/30 00:51:21;;;;;;;160.60;114.80;;;10.90;99.90;;;;;;5034159;28;20400;-69
2021/12/30 00:54:25;;;;;;;159.27;114.95;;;10.80;99.90;;;;;;5034051;28;20041;-68
2021/12/30 00:57:29;;;;;;;165.40;115.82;;;10.70;99.90;;;;;;5033807;28;20053;-68
2021/12/30 01:00:36;;;;;;;150.75;105.93;;;10.80;99.90;;;;;;5033976;28;20209;-68
2021/12/30 01:03:40;;;;;;;146.15;99.15;;;10.80;99.90;;;;;;5033963;28;20037;-68
2021/12/30 01:06:44;;;;;;;146.93;100.20;;;10.70;99.90;;;;;;5033727;28;20064;-68
2021/12/30 01:09:48;;;;;;;132.38;89.88;;;10.50;99.90;;;;;;5033653;28;20049;-68
2021/12/30 01:12:55;;;;;;;111.25;75.82;;;10.30;99.90;;;;;;5033916;28;20045;-69
2021/12/30 01:16:01;;;;;;;93.28;62.42;;;10.40;99.90;;;;;;5033949;28;20071;-69
2021/12/30 01:22:23;;;;;;;78.75;51.08;;;10.50;99.90;;;;;;5033591;28;20504;-69
2021/12/30 01:25:27;;;;;;;75.50;46.58;;;10.40;99.90;;;;;;5033548;28;20058;-69
2021/12/30 01:28:32;;;;;;;72.40;45.33;;;10.30;99.90;;;;;;5033303;28;20071;-69
2021/12/30 01:31:35;;;;;;;70.18;43.40;;;10.30;99.90;;;;;;5033507;28;20528;-68
2021/12/30 01:34:42;;;;;;;71.20;43.58;;;10.30;99.90;;;;;;5033445;28;20499;-69
2021/12/30 01:37:46;;;;;;;69.55;44.30;;;10.10;99.90;;;;;;5033473;28;20048;-69
2021/12/30 01:40:53;;;;;;;65.53;42.88;;;10.00;99.90;;;;;;5033275;28;20045;-69
2021/12/30 01:43:57;;;;;;;58.40;41.13;;;10.10;99.90;;;;;;5033199;28;20428;-69
2021/12/30 01:47:03;;;;;;;58.28;40.22;;;10.00;99.90;;;;;;5033214;28;20052;-69
2021/12/30 01:50:07;;;;;;;63.65;36.90;;;10.00;99.90;;;;;;5033177;28;20052;-69
2021/12/30 01:53:11;;;;;;;61.15;37.28;;;10.10;99.90;;;;;;5032416;28;20389;-69
2021/12/30 01:56:16;;;;;;;61.92;34.88;;;10.20;99.90;;;;;;5033018;28;20068;-69
2021/12/30 01:59:22;;;;;;;53.22;37.15;;;10.30;99.90;;;;;;5020324;28;20052;-69
2021/12/30 02:02:26;;;;;;;60.47;36.20;;;10.20;99.90;;;;;;5032854;28;20048;-69
2021/12/30 02:05:30;;;;;;;53.45;35.03;;;10.20;99.90;;;;;;5032588;28;20044;-69
2021/12/30 02:08:34;;;;;;;55.95;33.78;;;10.20;99.90;;;;;;5032873;28;20076;-69
2021/12/30 02:11:38;;;;;;;53.67;35.35;;;10.30;99.90;;;;;;5032866;28;20052;-69
2021/12/30 02:14:42;;;;;;;53.92;33.78;;;10.20;99.90;;;;;;5032852;28;20048;-67
2021/12/30 02:17:48;;;;;;;52.58;35.85;;;10.20;99.90;;;;;;5032413;28;20064;-69
2021/12/30 02:21:01;;;;;;;52.97;33.50;;;10.20;99.90;;;;;;5020319;28;20045;-69
2021/12/30 02:24:05;;;;;;;54.25;34.47;;;10.20;99.90;;;;;;5020203;28;20068;-69
2021/12/30 02:27:09;;;;;;;54.83;33.38;;;10.30;99.90;;;;;;5032622;28;20053;-69
2021/12/30 02:30:13;;;;;;;55.33;35.50;;;10.30;99.90;;;;;;5032191;28;20056;-68
2021/12/30 02:33:17;;;;;;;60.40;34.83;;;10.30;99.90;;;;;;5032303;28;20045;-69
2021/12/30 02:36:29;;;;;;;56.83;34.88;;;10.30;99.90;;;;;;5032223;28;20057;-69
2021/12/30 02:39:33;;;;;;;72.75;45.67;;;10.30;99.90;;;;;;5032225;28;20056;-69
2021/12/30 02:42:37;;;;;;;84.72;52.03;;;10.30;99.90;;;;;;5031946;28;20059;-69
2021/12/30 02:45:43;;;;;;;84.88;57.40;;;10.30;99.90;;;;;;5031807;28;20060;-69
2021/12/30 02:48:47;;;;;;;85.40;55.63;;;10.30;99.90;;;;;;5031904;28;20056;-69
2021/12/30 02:51:51;;;;;;;88.75;58.63;;;10.30;99.90;;;;;;5032030;28;20053;-69
2021/12/30 02:54:55;;;;;;;74.60;47.65;;;10.20;99.90;;;;;;5031806;28;20412;-69
2021/12/30 02:57:59;;;;;;;61.28;44.40;;;10.20;99.90;;;;;;5032009;28;20049;-68
2021/12/30 03:01:31;;;;;;;53.22;36.28;;;10.20;99.90;;;;;;5031521;28;20040;-67
2021/12/30 03:04:36;;;;;;;54.97;36.60;;;10.10;99.90;;;;;;5031107;28;20508;-67
2021/12/30 03:07:39;;;;;;;55.67;37.28;;;10.00;99.90;;;;;;5031305;28;20049;-69
2021/12/30 03:10:43;;;;;;;54.45;36.22;;;9.90;99.90;;;;;;5031459;28;20048;-69
2021/12/30 03:13:48;;;;;;;55.67;36.63;;;9.80;99.90;;;;;;5031793;28;20040;-69
2021/12/30 03:16:52;;;;;;;54.35;35.70;;;9.70;99.90;;;;;;5031739;28;20056;-69
2021/12/30 03:19:57;;;;;;;55.95;37.30;;;9.70;99.90;;;;;;5031519;28;20044;-69
2021/12/30 03:23:02;;;;;;;53.15;34.70;;;9.70;99.90;;;;;;5031501;28;20328;-69
2021/12/30 03:26:07;;;;;;;54.92;37.47;;;9.60;99.90;;;;;;5031408;28;20048;-69
2021/12/30 03:29:11;;;;;;;50.10;33.80;;;9.60;99.90;;;;;;5031084;28;20076;-69
2021/12/30 03:32:15;;;;;;;44.83;32.97;;;9.60;99.90;;;;;;5031303;28;20044;-69
2021/12/30 03:35:19;;;;;;;47.60;32.40;;;9.60;99.90;;;;;;5031338;28;20060;-69
2021/12/30 03:38:23;;;;;;;47.35;32.42;;;9.50;99.90;;;;;;5031020;28;20044;-69
2021/12/30 03:41:29;;;;;;;49.50;32.70;;;9.50;99.90;;;;;;5031302;28;20052;-69
2021/12/30 03:44:33;;;;;;;43.97;30.92;;;9.40;99.90;;;;;;5031328;28;20504;-67
2021/12/30 03:47:41;;;;;;;46.20;31.92;;;9.30;99.90;;;;;;5031026;28;20053;-67
2021/12/30 03:50:47;;;;;;;49.90;33.53;;;9.20;99.90;;;;;;5030663;28;20060;-69
2021/12/30 03:53:56;;;;;;;43.22;30.42;;;9.20;99.90;;;;;;5031066;28;20057;-69
2021/12/30 03:57:00;;;;;;;47.13;31.33;;;9.20;99.90;;;;;;5031354;28;20048;-69
2021/12/30 04:00:05;;;;;;;48.03;33.47;;;9.20;99.90;;;;;;5030725;28;20287;-69
2021/12/30 04:03:10;;;;;;;53.10;32.28;;;9.30;99.90;;;;;;5034939;28;20048;-69
2021/12/30 04:06:14;;;;;;;44.35;30.92;;;9.30;99.90;;;;;;5031099;28;20056;-69
2021/12/30 04:09:18;;;;;;;46.67;31.55;;;9.30;99.90;;;;;;5030454;28;20432;-67
2021/12/30 04:12:23;;;;;;;47.25;32.30;;;9.30;99.90;;;;;;5031389;28;20037;-67
2021/12/30 04:15:27;;;;;;;42.05;30.85;;;9.30;99.90;;;;;;5031024;28;20519;-69
2021/12/30 04:18:31;;;;;;;48.42;31.80;;;9.30;99.90;;;;;;5034895;28;20040;-69
2021/12/30 04:21:35;;;;;;;43.00;31.40;;;9.30;99.90;;;;;;5035098;28;20045;-68
2021/12/30 04:24:39;;;;;;;45.33;29.48;;;9.30;99.90;;;;;;5034660;28;20060;-68
2021/12/30 04:27:45;;;;;;;44.80;30.40;;;9.20;99.90;;;;;;5034284;28;20048;-68
2021/12/30 04:30:49;;;;;;;38.83;28.20;;;9.30;99.90;;;;;;5034299;28;20057;-69
2021/12/30 04:33:52;;;;;;;39.47;29.40;;;9.20;99.90;;;;;;5022514;28;20511;-69
2021/12/30 04:37:00;;;;;;;35.47;25.23;;;9.20;99.90;;;;;;5034418;28;20048;-69
2021/12/30 04:40:07;;;;;;;41.70;26.38;;;9.10;99.90;;;;;;5034548;28;20064;-68
2021/12/30 04:43:11;;;;;;;38.05;23.75;;;9.00;99.90;;;;;;5034325;28;20050;-69
2021/12/30 04:46:15;;;;;;;33.33;24.20;;;9.00;99.90;;;;;;5022196;28;20052;-69
2021/12/30 04:49:19;;;;;;;31.35;24.25;;;9.00;99.90;;;;;;5034155;28;20060;-69
2021/12/30 04:52:24;;;;;;;33.78;24.00;;;8.90;99.90;;;;;;5033722;28;20045;-68
2021/12/30 04:55:28;;;;;;;35.63;26.08;;;8.80;99.90;;;;;;5034132;28;20044;-69
2021/12/30 04:58:32;;;;;;;38.42;25.20;;;8.80;99.90;;;;;;5033888;28;20417;-69
2021/12/30 05:01:38;;;;;;;41.60;27.73;;;8.80;99.90;;;;;;5033792;28;20503;-69
2021/12/30 05:04:42;;;;;;;42.90;28.90;;;8.90;99.90;;;;;;5033799;28;20040;-68
2021/12/30 05:07:46;;;;;;;46.75;27.75;;;9.00;99.90;;;;;;5033749;28;20056;-68
2021/12/30 05:10:51;;;;;;;46.70;31.90;;;9.00;99.90;;;;;;5033409;28;20212;-68
2021/12/30 05:13:55;;;;;;;45.45;31.88;;;9.10;99.90;;;;;;5033722;28;20044;-68
2021/12/30 05:17:02;;;;;;;45.67;28.30;;;9.20;99.90;;;;;;5033517;28;20049;-68
2021/12/30 05:20:07;;;;;;;41.58;27.33;;;9.10;99.90;;;;;;5033671;28;20361;-68
2021/12/30 05:23:11;;;;;;;43.92;28.15;;;9.00;99.90;;;;;;5033633;28;20056;-68
2021/12/30 05:26:16;;;;;;;49.60;29.77;;;9.00;99.90;;;;;;5033636;28;20095;-69
2021/12/30 05:29:20;;;;;;;44.08;25.88;;;9.10;99.90;;;;;;5032329;28;20053;-69
2021/12/30 05:32:24;;;;;;;36.97;24.95;;;9.10;99.90;;;;;;5033500;28;20064;-68
2021/12/30 05:35:28;;;;;;;43.78;25.85;;;9.20;99.90;;;;;;5033066;28;20045;-68
2021/12/30 05:38:32;;;;;;;38.55;25.77;;;9.10;99.90;;;;;;5033085;28;20052;-68
2021/12/30 05:41:36;;;;;;;39.05;25.25;;;9.00;99.90;;;;;;5033240;28;20393;-69
2021/12/30 05:44:41;;;;;;;40.92;24.50;;;9.00;99.90;;;;;;5033301;28;20044;-69
2021/12/30 05:47:46;;;;;;;40.60;26.67;;;8.90;99.90;;;;;;5032914;28;20044;-69
2021/12/30 05:50:50;;;;;;;35.08;25.25;;;8.90;99.90;;;;;;5033164;28;20052;-69
2021/12/30 05:53:54;;;;;;;34.33;24.50;;;9.00;99.90;;;;;;5032947;28;20548;-69
2021/12/30 05:56:58;;;;;;;35.75;24.13;;;8.90;99.90;;;;;;5032830;28;20048;-69
2021/12/30 06:00:03;;;;;;;34.05;21.70;;;8.90;99.90;;;;;;5032827;28;20047;-69
2021/12/30 06:03:08;;;;;;;34.30;20.75;;;8.90;99.90;;;;;;5032532;28;20045;-68
2021/12/30 06:06:12;;;;;;;33.55;21.40;;;8.90;99.90;;;;;;5036609;28;20053;-68
2021/12/30 06:09:16;;;;;;;35.30;22.17;;;8.80;99.90;;;;;;5032259;28;20120;-70
2021/12/30 06:12:23;;;;;;;29.25;19.42;;;8.80;99.90;;;;;;5032423;28;20048;-67
2021/12/30 06:15:27;;;;;;;27.30;19.08;;;8.80;99.90;;;;;;5032422;28;20393;-67
2021/12/30 06:18:31;;;;;;;34.00;19.80;;;8.70;99.90;;;;;;5032511;28;20068;-68
2021/12/30 06:21:34;;;;;;;33.72;18.38;;;8.70;99.90;;;;;;5032674;28;20044;-68
2021/12/30 06:24:39;;;;;;;33.30;18.42;;;8.70;99.90;;;;;;5032804;28;20487;-68
2021/12/30 06:27:43;;;;;;;29.75;18.85;;;8.70;99.90;;;;;;5032674;28;20495;-68
2021/12/30 06:30:47;;;;;;;34.72;19.23;;;8.70;99.90;;;;;;5032034;28;20056;-68
2021/12/30 06:33:51;;;;;;;37.03;18.20;;;8.60;99.90;;;;;;5032294;28;20056;-68
2021/12/30 06:36:55;;;;;;;28.88;19.05;;;8.70;99.90;;;;;;5032098;28;20049;-68
2021/12/30 06:39:59;;;;;;;36.42;18.73;;;8.60;99.90;;;;;;5031968;28;20048;-68
2021/12/30 06:43:03;;;;;;;34.15;19.70;;;8.60;99.90;;;;;;5032012;28;20448;-68
2021/12/30 06:46:09;;;;;;;38.92;20.27;;;8.60;99.90;;;;;;5032290;28;20056;-70
2021/12/30 06:49:14;;;;;;;40.15;20.17;;;8.60;99.90;;;;;;5031856;28;20056;-69
2021/12/30 06:52:18;;;;;;;45.92;27.08;;;8.70;99.90;;;;;;5032002;28;20052;-70
2021/12/30 06:55:22;;;;;;;31.48;17.42;;;8.80;99.90;;;;;;5019284;28;20048;-68
2021/12/30 06:58:26;;;;;;;31.98;18.13;;;8.80;99.90;;;;;;5031602;28;20045;-69
2021/12/30 07:01:30;;;;;;;26.20;17.02;;;8.90;99.90;;;;;;5019574;28;20499;-69
2021/12/30 07:04:35;;;;;;;35.05;19.25;;;9.00;99.90;;;;;;5031589;28;20045;-68
2021/12/30 07:07:39;;;;;;;37.65;19.33;;;9.00;99.90;;;;;;5031426;28;20527;-69
2021/12/30 07:10:43;;;;;;;35.30;18.15;;;9.00;99.90;;;;;;5030360;28;20056;-69
2021/12/30 07:13:47;;;;;;;39.40;22.27;;;9.10;99.90;;;;;;5030779;28;20202;-68
2021/12/30 07:16:52;;;;;;;37.45;22.33;;;9.00;99.90;;;;;;5030899;28;20048;-67
2021/12/30 07:19:55;;;;;;;47.53;24.00;;;9.00;99.90;;;;;;5030732;28;20064;-67
2021/12/30 07:22:59;;;;;;;45.00;22.42;;;9.00;99.90;;;;;;5030892;28;20036;-67
2021/12/30 07:26:03;;;;;;;47.22;24.02;;;9.00;99.90;;;;;;5031343;28;20056;-67
2021/12/30 07:29:07;;;;;;;46.78;26.95;;;9.20;99.90;;;;;;5030946;28;20041;-67
2021/12/30 07:32:11;;;;;;;52.63;28.52;;;9.30;99.90;;;;;;5030955;28;20076;-65
2021/12/30 07:35:17;;;;;;;39.25;25.08;;;9.40;99.90;;;;;;5030997;28;20056;-65
2021/12/30 07:38:22;;;;;;;55.00;31.77;;;9.60;99.90;;;;;;5031004;28;20056;-65
2021/12/30 07:41:26;;;;;;;59.03;35.17;;;9.80;99.90;;;;;;5031253;28;20040;-65
2021/12/30 07:44:30;;;;;;;57.85;33.75;;;10.00;99.90;;;;;;5031034;28;20047;-66
2021/12/30 07:47:34;;;;;;;70.28;39.25;;;10.10;99.90;;;;;;5030733;28;20591;-68
2021/12/30 07:50:37;;;;;;;65.78;39.03;;;10.30;99.90;;;;;;5030538;28;20060;-68
2021/12/30 07:53:41;;;;;;;59.03;38.28;;;10.30;99.90;;;;;;5031438;28;20040;-68
2021/12/30 07:56:49;;;;;;;66.05;36.85;;;10.40;99.90;;;;;;5030874;28;20424;-68
2021/12/30 07:59:53;;;;;;;61.83;36.88;;;10.50;99.90;;;;;;5018767;28;20048;-68
2021/12/30 08:02:57;;;;;;;51.22;33.58;;;10.60;99.90;;;;;;5030816;28;20052;-69
2021/12/30 08:06:01;;;;;;;51.03;33.22;;;10.70;99.90;;;;;;5030834;28;20049;-69
2021/12/30 08:09:06;;;;;;;622.55;100.85;;;10.90;99.90;;;;;;5030479;28;20052;-66
2021/12/30 08:12:10;;;;;;;60.63;36.63;;;11.00;99.90;;;;;;5030657;28;20045;-67
2021/12/30 08:15:16;;;;;;;59.83;35.58;;;11.10;99.90;;;;;;5030503;28;20045;-67
2021/12/30 08:18:20;;;;;;;54.08;34.92;;;11.00;99.90;;;;;;5030464;28;20048;-67
2021/12/30 08:21:24;;;;;;;58.08;35.55;;;11.10;99.90;;;;;;5030509;28;20053;-68
2021/12/30 08:24:29;;;;;;;63.08;37.33;;;11.30;99.90;;;;;;5030581;28;20053;-67
2021/12/30 08:27:33;;;;;;;60.75;35.70;;;11.30;99.90;;;;;;5030837;28;20404;-68
2021/12/30 08:30:37;;;;;;;50.28;32.28;;;11.40;99.90;;;;;;5030645;28;20412;-68
2021/12/30 08:33:41;;;;;;;50.75;31.85;;;11.40;99.90;;;;;;5030950;28;20057;-68
2021/12/30 08:36:46;;;;;;;47.67;29.15;;;11.70;99.90;;;;;;5030519;28;20056;-67
2021/12/30 08:39:50;;;;;;;37.58;25.48;;;11.80;99.90;;;;;;5030554;28;20077;-67
2021/12/30 08:42:54;;;;;;;36.45;24.83;;;12.10;99.90;;;;;;5030552;28;20081;-67
2021/12/30 08:45:58;;;;;;;40.03;26.75;;;12.40;99.90;;;;;;5030145;28;20496;-68
2021/12/30 08:49:02;;;;;;;40.38;24.77;;;12.70;99.90;;;;;;5030201;28;20064;-67
2021/12/30 08:52:07;;;;;;;36.97;24.00;;;12.90;99.90;;;;;;5030265;28;20061;-67
2021/12/30 08:55:11;;;;;;;33.78;23.15;;;13.20;99.90;;;;;;5030426;28;20048;-69
2021/12/30 08:58:15;;;;;;;39.47;24.80;;;13.40;99.90;;;;;;5030030;28;20047;-69
2021/12/30 09:01:22;;;;;;;38.85;23.92;;;13.60;99.90;;;;;;5030449;28;20052;-69
2021/12/30 09:04:26;;;;;;;41.63;26.75;;;13.80;99.90;;;;;;5033438;28;20057;-66
2021/12/30 09:07:30;;;;;;;34.08;25.02;;;14.10;99.90;;;;;;5032490;28;20052;-68
2021/12/30 09:10:40;;;;;;;37.40;25.92;;;14.20;99.70;;;;;;5033570;28;20056;-68
2021/12/30 09:13:44;;;;;;;44.50;27.85;;;14.40;99.30;;;;;;5034007;28;20044;-69
2021/12/30 09:16:50;;;;;;;41.33;26.33;;;14.60;98.90;;;;;;5033093;28;20049;-69
2021/12/30 09:19:54;;;;;;;52.65;28.75;;;14.80;98.50;;;;;;5033160;28;20508;-69
2021/12/30 09:22:58;;;;;;;41.20;27.55;;;15.00;98.00;;;;;;5033032;28;20041;-68
2021/12/30 09:26:01;;;;;;;43.38;30.20;;;15.10;97.90;;;;;;5033383;28;20040;-68
2021/12/30 09:29:10;;;;;;;48.15;31.25;;;15.30;97.40;;;;;;5033313;28;20036;-68
2021/12/30 09:32:14;;;;;;;51.35;29.38;;;15.40;97.40;;;;;;5033334;28;20072;-68
2021/12/30 09:35:19;;;;;;;41.33;28.85;;;15.60;97.20;;;;;;5032188;28;20053;-69
2021/12/30 09:38:23;;;;;;;40.80;28.23;;;15.70;97.10;;;;;;5032670;28;20048;-67
2021/12/30 09:41:27;;;;;;;42.50;26.00;;;15.90;97.10;;;;;;5033268;28;20057;-69
2021/12/30 09:44:31;;;;;;;42.95;25.88;;;16.10;96.70;;;;;;5032903;28;20492;-68
2021/12/30 09:47:36;;;;;;;37.42;25.92;;;16.30;96.20;;;;;;5032821;28;20053;-69
2021/12/30 09:50:42;;;;;;;40.67;26.27;;;16.50;95.80;;;;;;5020348;28;20069;-69
2021/12/30 09:53:50;;;;;;;27.02;20.65;;;16.60;94.90;;;;;;5032940;28;20052;-67
2021/12/30 09:56:55;;;;;;;33.00;20.55;;;16.80;93.70;;;;;;5032753;28;20064;-69
2021/12/30 09:59:58;;;;;;;32.78;22.52;;;16.90;93.60;;;;;;5032732;28;20056;-68
2021/12/30 10:03:03;;;;;;;36.00;23.02;;;17.00;93.40;;;;;;5020543;28;20045;-67
2021/12/30 10:06:13;;;;;;;41.75;22.83;;;17.10;93.30;;;;;;5032735;28;20109;-68
2021/12/30 10:09:17;;;;;;;47.55;23.58;;;17.30;93.00;;;;;;5032519;28;20068;-67
2021/12/30 10:12:40;;;;;;;38.75;23.70;;;17.30;92.60;;;;;;5020727;28;20401;-67
2021/12/30 10:15:46;;;;;;;34.75;19.13;;;17.50;92.60;;;;;;5032380;28;20049;-67
2021/12/30 10:18:57;;;;;;;21.70;15.25;;;17.60;91.90;;;;;;5031990;28;20060;-67
2021/12/30 10:22:12;;;;;;;19.35;14.73;;;17.70;90.70;;;;;;5032122;28;20492;-67
2021/12/30 10:25:26;;;;;;;26.65;13.98;;;17.90;90.30;;;;;;5032266;28;20384;-67
2021/12/30 10:28:36;;;;;;;18.75;13.02;;;18.00;87.40;;;;;;5031522;28;20044;-70
2021/12/30 10:31:42;;;;;;;18.60;12.23;;;18.10;86.50;;;;;;5031958;28;20057;-69
2021/12/30 10:35:05;;;;;;;20.77;9.98;;;18.10;86.50;;;;;;5032084;28;20427;-68
2021/12/30 10:38:11;;;;;;;16.83;10.02;;;18.20;83.70;;;;;;5031612;28;20056;-68
2021/12/30 10:41:16;;;;;;;15.02;6.65;;;18.30;81.70;;;;;;5031895;28;20401;-68
2021/12/30 10:44:20;;;;;;;11.23;6.53;;;18.20;77.60;;;;;;5032202;28;20056;-68
2021/12/30 10:47:28;;;;;;;12.48;7.10;;;18.20;76.60;;;;;;5032270;28;20048;-68
2021/12/30 10:50:32;;;;;;;12.80;6.93;;;18.20;77.40;;;;;;5031653;28;20413;-69
2021/12/30 10:53:37;;;;;;;15.98;5.90;;;18.30;79.30;;;;;;5031740;28;20048;-68
2021/12/30 10:57:09;;;;;;;14.05;5.93;;;18.30;76.80;;;;;;5031534;28;20064;-67
2021/12/30 11:00:34;;;;;;;9.85;4.80;;;18.30;75.40;;;;;;5031498;28;20515;-69
2021/12/30 11:03:42;;;;;;;7.93;3.67;;;18.40;75.70;;;;;;5031221;28;20040;-69
2021/12/30 11:06:47;;;;;;;12.65;4.30;;;18.40;73.80;;;;;;5030736;28;20210;-68
2021/12/30 11:09:55;;;;;;;15.23;4.70;;;18.50;73.80;;;;;;5030504;28;20048;-68
2021/12/30 11:13:13;;;;;;;4.22;3.08;;;18.50;75.00;;;;;;5030299;28;20496;-68
2021/12/30 11:16:17;;;;;;;4.57;2.60;;;18.50;69.50;;;;;;5030740;28;20045;-69
2021/12/30 11:19:23;;;;;;;5.30;2.55;;;18.40;70.10;;;;;;5030823;28;20044;-68
2021/12/30 11:22:30;;;;;;;4.65;2.47;;;18.40;70.80;;;;;;5030939;28;20056;-67
2021/12/30 11:25:34;;;;;;;5.95;2.50;;;18.40;69.90;;;;;;5017992;28;20056;-68
2021/12/30 11:28:38;;;;;;;5.55;2.55;;;18.40;70.30;;;;;;5030576;28;20041;-68
2021/12/30 11:31:43;;;;;;;6.75;2.60;;;18.40;71.70;;;;;;5031203;28;20056;-68
2021/12/30 11:34:48;;;;;;;6.97;2.50;;;18.40;71.20;;;;;;5030920;28;20048;-68
2021/12/30 11:37:53;;;;;;;8.10;3.72;;;18.40;70.40;;;;;;5030785;28;20055;-68
2021/12/30 11:40:57;;;;;;;7.78;3.42;;;18.40;72.30;;;;;;5030936;28;20385;-68
2021/12/30 11:44:04;;;;;;;9.60;3.63;;;18.30;72.00;;;;;;5031083;28;20690;-68
2021/12/30 11:47:32;;;;;;;13.18;3.45;;;18.30;71.40;;;;;;5030919;28;20120;-68
2021/12/30 11:50:39;;;;;;;8.35;4.38;;;18.30;72.10;;;;;;5029585;28;20056;-68
2021/12/30 11:53:45;;;;;;;6.30;3.10;;;18.20;72.90;;;;;;5030741;28;20048;-68
2021/12/30 11:57:28;;;;;;;7.13;3.70;;;18.20;71.20;;;;;;5030841;28;20057;-68
2021/12/30 12:00:36;;;;;;;9.50;3.67;;;18.20;72.20;;;;;;5030632;28;20045;-67
2021/12/30 12:03:49;;;;;;;10.18;3.80;;;18.20;74.30;;;;;;5030473;28;20056;-68
2021/12/30 12:06:59;;;;;;;7.72;3.17;;;18.10;74.00;;;;;;5030268;28;20063;-69
2021/12/30 12:10:16;;;;;;;14.10;3.22;;;18.10;74.10;;;;;;5030305;28;20056;-68
2021/12/30 12:13:35;;;;;;;6.13;2.97;;;18.10;70.30;;;;;;5031952;28;20080;-68
2021/12/30 12:16:58;;;;;;;7.13;3.00;;;18.10;70.80;;;;;;5034061;28;20049;-67
2021/12/30 12:20:18;;;;;;;5.15;2.50;;;18.10;70.90;;;;;;5030991;28;20056;-67
2021/12/30 12:23:45;;;;;;;4.03;2.25;;;18.20;70.10;;;;;;5030758;28;20045;-69
2021/12/30 12:26:51;;;;;;;4.82;2.30;;;18.20;69.60;;;;;;5030787;28;20052;-69
2021/12/30 12:29:56;;;;;;;4.13;1.80;;;18.20;69.20;;;;;;5030998;28;20049;-69
2021/12/30 12:33:23;;;;;;;3.75;2.42;;;18.20;69.00;;;;;;5018133;28;20060;-69
2021/12/30 12:36:33;;;;;;;4.72;2.20;;;18.30;69.30;;;;;;5030560;28;20041;-69
2021/12/30 12:39:38;;;;;;;3.15;2.00;;;18.20;69.30;;;;;;5034122;28;20401;-69
2021/12/30 12:42:51;;;;;;;3.78;2.10;;;18.30;69.00;;;;;;5034880;28;20044;-69
2021/12/30 12:46:01;;;;;;;3.13;2.00;;;18.30;68.80;;;;;;5034327;28;20060;-69
2021/12/30 12:49:07;;;;;;;2.90;1.87;;;18.20;68.60;;;;;;5034283;28;20049;-69
2021/12/30 12:52:11;;;;;;;4.60;2.08;;;18.20;68.80;;;;;;5034023;28;20299;-69
2021/12/30 12:55:21;;;;;;;5.57;2.00;;;18.20;68.90;;;;;;5034257;28;20048;-69
2021/12/30 12:58:42;;;;;;;4.60;2.07;;;18.30;69.30;;;;;;5033958;28;20048;-69
2021/12/30 13:01:46;;;;;;;5.25;2.20;;;18.20;69.10;;;;;;5034103;28;20400;-67
2021/12/30 13:04:49;;;;;;;4.05;1.98;;;18.20;68.40;;;;;;5033967;28;20044;-69
2021/12/30 13:07:55;;;;;;;5.03;2.17;;;18.20;68.60;;;;;;5033426;28;20056;-66
2021/12/30 13:11:00;;;;;;;5.15;2.40;;;18.20;68.00;;;;;;5033786;28;20405;-69
2021/12/30 13:14:26;;;;;;;4.47;2.25;;;18.20;68.60;;;;;;5033851;28;20260;-69
2021/12/30 13:17:33;;;;;;;3.17;1.88;;;18.20;68.80;;;;;;5033664;28;20036;-69
2021/12/30 13:20:37;;;;;;;4.38;2.15;;;18.20;67.70;;;;;;5033631;28;20048;-67
2021/12/30 13:23:42;;;;;;;7.18;2.55;;;18.20;67.80;;;;;;5033702;28;20057;-67
2021/12/30 13:26:46;;;;;;;5.13;2.53;;;18.10;68.60;;;;;;5033307;28;20092;-66
2021/12/30 13:30:05;;;;;;;5.53;2.28;;;18.10;68.50;;;;;;5033308;28;20069;-68
2021/12/30 13:33:09;;;;;;;4.07;2.83;;;18.10;69.20;;;;;;5033285;28;20057;-68
2021/12/30 13:36:17;;;;;;;13.20;4.82;;;18.00;69.70;;;;;;5033622;28;20041;-69
2021/12/30 13:39:21;;;;;;;6.25;3.08;;;18.00;70.00;;;;;;5033531;28;20052;-69
2021/12/30 13:42:27;;;;;;;10.18;3.15;;;17.90;69.50;;;;;;5032893;28;20045;-69
2021/12/30 13:45:37;;;;;;;4.38;2.53;;;17.90;70.30;;;;;;5032364;28;20056;-68
2021/12/30 13:48:44;;;;;;;5.38;2.63;;;17.90;69.30;;;;;;5032595;28;20389;-69
2021/12/30 13:51:47;;;;;;;7.63;3.28;;;18.00;68.90;;;;;;5032979;28;20057;-68
2021/12/30 13:55:12;;;;;;;10.15;3.13;;;17.90;69.60;;;;;;5033252;28;20044;-68
2021/12/30 13:58:23;;;;;;;4.15;2.47;;;17.90;68.80;;;;;;5032761;28;20044;-66
2021/12/30 14:01:30;;;;;;;6.05;3.75;;;17.90;69.10;;;;;;5032380;28;20036;-66
2021/12/30 14:04:39;;;;;;;6.10;2.83;;;17.90;69.00;;;;;;5032660;28;20539;-68
2021/12/30 14:07:48;;;;;;;12.02;3.92;;;17.90;69.90;;;;;;5032414;28;20052;-68
2021/12/30 14:10:56;;;;;;;7.18;3.53;;;17.90;70.20;;;;;;5032337;28;20136;-67
2021/12/30 14:14:03;;;;;;;10.93;3.35;;;17.80;70.40;;;;;;5032959;28;20476;-67
2021/12/30 14:17:10;;;;;;;7.95;3.90;;;17.70;70.30;;;;;;5032621;28;20066;-67
2021/12/30 14:20:15;;;;;;;5.40;3.08;;;17.70;70.00;;;;;;5032653;28;20508;-67
2021/12/30 14:23:47;;;;;;;7.50;3.58;;;17.70;70.50;;;;;;5032389;28;20040;-67
2021/12/30 14:26:57;;;;;;;8.82;3.95;;;17.70;71.10;;;;;;5032223;28;20409;-68
2021/12/30 14:30:13;;;;;;;8.13;4.18;;;17.70;71.50;;;;;;5032383;28;20048;-67
2021/12/30 14:33:19;;;;;;;9.82;4.70;;;17.60;73.50;;;;;;5032392;28;20048;-67
2021/12/30 14:36:22;;;;;;;8.07;4.72;;;17.60;76.00;;;;;;5020146;28;20060;-67
2021/12/30 14:39:40;;;;;;;9.93;6.05;;;17.50;76.60;;;;;;5032001;28;20425;-67
2021/12/30 14:42:43;;;;;;;10.63;5.72;;;17.50;76.30;;;;;;5031852;28;20044;-66
2021/12/30 14:45:50;;;;;;;7.88;4.90;;;17.40;75.10;;;;;;5031762;28;20056;-67
2021/12/30 14:49:08;;;;;;;9.43;5.07;;;17.30;75.60;;;;;;5031787;28;20052;-67
2021/12/30 14:52:13;;;;;;;11.18;5.00;;;17.30;76.00;;;;;;5031608;28;20061;-67
2021/12/30 14:55:19;;;;;;;17.08;6.75;;;17.30;75.90;;;;;;5031719;28;20039;-69
2021/12/30 14:58:23;;;;;;;11.98;5.65;;;17.20;76.50;;;;;;5031397;28;20637;-67
2021/12/30 15:01:28;;;;;;;9.38;4.47;;;17.20;76.80;;;;;;5031458;28;20044;-67
2021/12/30 15:04:32;;;;;;;10.20;4.85;;;17.10;76.60;;;;;;5031860;28;20052;-66
2021/12/30 15:07:38;;;;;;;9.88;4.85;;;17.10;76.00;;;;;;5031283;28;20049;-66
2021/12/30 15:10:42;;;;;;;8.63;5.18;;;17.10;75.50;;;;;;5031328;28;20396;-69
2021/12/30 15:13:47;;;;;;;8.23;4.35;;;17.10;75.40;;;;;;5031323;28;20044;-69
2021/12/30 15:16:51;;;;;;;7.40;3.90;;;17.10;75.10;;;;;;5031482;28;20504;-68
2021/12/30 15:19:55;;;;;;;7.13;3.80;;;17.10;74.60;;;;;;5031278;28;20057;-67
2021/12/30 15:23:00;;;;;;;7.40;4.50;;;17.10;74.50;;;;;;5019057;28;20040;-68
2021/12/30 15:26:04;;;;;;;11.65;4.80;;;17.10;74.70;;;;;;5031180;28;20500;-67
2021/12/30 15:29:08;;;;;;;9.40;5.32;;;17.10;75.30;;;;;;5031250;28;20052;-69
2021/12/30 15:32:12;;;;;;;15.48;8.23;;;17.00;75.30;;;;;;5018726;28;20428;-67
2021/12/30 15:35:17;;;;;;;15.45;8.35;;;17.00;76.20;;;;;;5030253;28;20527;-68
2021/12/30 15:38:22;;;;;;;13.18;7.32;;;16.90;76.00;;;;;;5030615;28;20073;-67
2021/12/30 15:41:26;;;;;;;12.68;7.55;;;16.90;76.10;;;;;;5031004;28;20045;-69
2021/12/30 15:44:30;;;;;;;17.10;9.05;;;16.80;75.60;;;;;;5030740;28;20060;-68
2021/12/30 15:47:34;;;;;;;19.02;13.32;;;16.80;75.00;;;;;;5018177;28;20147;-68
2021/12/30 15:50:38;;;;;;;18.35;11.20;;;16.80;75.90;;;;;;5030693;28;20056;-68
2021/12/30 15:53:45;;;;;;;18.17;10.65;;;16.80;76.20;;;;;;5030474;28;20049;-67
2021/12/30 15:56:51;;;;;;;17.40;10.13;;;16.70;77.00;;;;;;5030678;28;20048;-68